AirNav   Phillips 66 Aviation Fuel
 
 1628 users online  

CN12 Williams Gliderport
Williams, California, USA

GOING TO WILLIAMS?


FAA INFORMATION EFFECTIVE 25 APRIL 2019

Location

FAA Identifier: CN12
Lat/Long: 39-09-48.6080N / 122-07-53.9080W
39-09.810133N / 122-07.898467W
39.1635022 / -122.1316411
(estimated)
Elevation: 68 ft. / 21 m (estimated)
Variation: 16E (1985)
From city: 1 mile NE of WILLIAMS, CA
Time zone: UTC -7 (UTC -8 during Standard Time)
Zip code: 95987

Gliderport Operations

Gliderport use: Private use. Permission required prior to landing
Control tower: no
ARTCC: OAKLAND CENTER
FSS: RANCHO MURIETA FLIGHT SERVICE STATION
Attendance: UNATNDD
Wind indicator: yes
Segmented circle: no
Landing fee: yes

Nearby radio navigation aids

VOR radial/distance  VOR name  Freq  Var
ILAr301/7.4WILLIAMS VORTAC114.4018E
MYVr263/26.3MARYSVILLE VOR/DME110.8016E
CICr183/39.8CHICO VOR/DME109.8016E

Gliderport Services

Airframe service: NONE
Powerplant service: NONE

Runway Information

Runway 16/34

Dimensions: 2500 x 40 ft. / 762 x 12 m
Surface: asphalt
RUNWAY 16  RUNWAY 34
Traffic pattern: rightright

Gliderport Ownership and Management from official FAA records

Ownership: Privately-owned
Owner: VACAVILLE AERO SVCS INC
2668 HUSTED ROAD
WILLIAMS, CA 95987-5105
Phone 530-473-5600
Manager: BRETT R. MAYES
2668 HUSTED ROAD
WILLIAMS, CA 95987-5105
Phone 530-473-5600
ADD'L CONTACT NOELLE MAYES, 530-330-4354, NOELLE@WILLIAMSSOARING.COM

Gliderport Operational Statistics

Aircraft based on the field: 58
Single engine airplanes: 7
Multi engine airplanes: 1
Gliders airplanes: 50
    

Additional Remarks

RWY/APRON - POOR; UNPAVED PORTION - POOR/SOFT WHEN WET.

Instrument Procedures

There are no published instrument procedures at CN12.

Some nearby airports with instrument procedures:

O08 - Colusa County Airport (6 nm E)
KWLW - Willows-Glenn County Airport (22 nm N)
KMYV - Yuba County Airport (26 nm E)
KOVE - Oroville Municipal Airport (31 nm NE)
O41 - Watts-Woodland Airport (32 nm S)
 
Loc | Ops | Rwys | IFR | FBO | Links
Com | Nav | Svcs | Stats | Notes

Sonoma Jet Center
 
Area around CN12 (Williams Gliderport)
 
Road maps at: MapQuest Bing Google
 
Aerial photo
WARNING: Photo may not be current or correct
Aerial photo of CN12 (Williams Gliderport)
Photo by Kempton Izuno

Do you have a better or more recent aerial photo of Williams Gliderport that you would like to share? If so, please send us your photo.

 
Sectional chart

 
Airport distance calculator
Flying to Williams Gliderport? Find the distance to fly.

From to CN12

Sunrise and sunset
Times for 22-May-2019
 Local
(UTC-7)
 Zulu
(UTC)
Morning civil twilight05:2012:20
Sunrise05:5112:51
Sunset20:2003:20
Evening civil twilight20:5103:51

Current date and time
Zulu (UTC)  22-May-2019 18:02:47
Local (UTC-7)  22-May-2019 11:02:47
 
METAR
KMYV 
27nm E 
221753Z AUTO 32011G17KT 10SM CLR 17/10 A2981 RMK AO2 SLP098 T01720100 10172 20072 58010
KOVE 
31nm NE 
221753Z AUTO 31007KT 10SM CLR 16/09 A2982 RMK AO2 SLP100 T01560094 10156 20089 56008
KBAB 
32nm E 
221758Z 31008KT 10SM FEW016 15/10 A2980 RMK AO2A SLP094 T01520102 10153 20085 58009 $
KSMF 
37nm SE 
221753Z 35013G17KT 10SM FEW030 BKN250 17/10 A2981 RMK AO2 SLP092 T01670100 10172 20078 58008
KLHM 
39nm SE 
221755Z AUTO 32005KT 10SM SCT018 15/10 A2980 RMK AO1
KCIC 
40nm N 
221747Z 31017G24KT 40SM FEW080 BKN200 18/07 A2980
KEDU 
41nm SE 
221800Z AUTO 01015G22KT 10SM CLR 19/08 A2982 RMK AO1
KMCC 
45nm SE 
221800Z AUTO 34010KT 320V020 10SM FEW024 16/10 A2983 RMK AO2
KVCB 
48nm S 
221753Z AUTO 02012G18KT 10SM CLR 21/08 A2982 RMK AO2 SLP097 T02110078 10211 20089 58008
KSAC 
50nm SE 
221753Z 31008KT 10SM SCT026 16/09 A2982 RMK AO2 SLP096 T01610089 10167 20094 58006 $
TAF
KBAB 
32nm E 
221100Z 2211/2317 VRB06KT 9999 FEW110 QNH2976INS BECMG 2214/2215 33010G15KT 9999 SCT050 QNH2972INS BECMG 2221/2222 34012G18KT 9999 SCT100 QNH2966INS BECMG 2303/2304 33010G15KT 9999 SCT050 BKN100 QNH2968INS BECMG 2314/2315 VRB06KT 9999 FEW100 QNH2975INS TX22/2222Z TN08/2212Z
KSMF 
37nm SE 
221734Z 2218/2318 34014G20KT P6SM SCT020 BKN250 FM230300 22005KT P6SM SCT100 BKN200 FM231300 VRB05KT P6SM BKN150 OVC250
NOTAMs
Click for the latest NOTAMs
NOTAMs are issued by the DoD/FAA and will open in a separate window not controlled by AirNav.

 

 
 

Would you like to see your business listed on this page?

 If your business provides an interesting product or service to pilots, flight crews, aircraft, or users of the Williams Gliderport, you should consider listing it here.  To start the listing process, click on the button below
 
Add a business
 

Other Pages about Williams Gliderport

Update a link
 
Copyright © AirNav, LLC. All rights reserved. Privacy Policy  Contact